Terminal Aerodrome Forecast
Issued by NWS

Home | Current Version | Previous Version | Text Only | Print | Product List | Glossary On
Versions: 1 2 3 4 5 6 7 8 9 10 11 12 13
000
FTAK31 PAFA 282345 CCA
TAFAOR
TAF COR
PAOR 282345Z 2900/2924 24004KT P6SM BKN110
     FM290300 VRB04KT P6SM VCSH SCT050 BKN100
     FM292000 33009KT P6SM VCSH BKN060 BKN100 PROB30 2920/2924 6SM
      -TSRA BKN050CB=

USA.gov is the U.S. government's official web portal to all federal, state and local government web resources and services.